createdAt,value
2022-09-13T00:01:23.290Z,4.40
2022-09-13T00:04:10.685Z,4.07
2022-09-13T00:06:58.040Z,4.40
2022-09-13T00:09:45.327Z,4.70
2022-09-13T00:12:32.660Z,4.72
2022-09-13T00:15:20.057Z,4.05
2022-09-13T00:18:07.347Z,4.05
2022-09-13T00:21:08.035Z,4.45
2022-09-13T00:23:55.831Z,4.80
2022-09-13T00:26:43.382Z,5.00
2022-09-13T00:29:32.487Z,4.55
2022-09-13T00:32:20.101Z,4.22
2022-09-13T00:35:08.140Z,4.30
2022-09-13T00:37:55.741Z,4.80
2022-09-13T00:40:43.042Z,4.55
2022-09-13T00:43:49.381Z,4.15
2022-09-13T00:46:48.173Z,4.07
2022-09-13T00:49:39.739Z,4.88
2022-09-13T00:52:31.152Z,4.50
2022-09-13T00:55:26.492Z,4.47
2022-09-13T00:58:21.192Z,4.63
2022-09-13T01:01:12.613Z,4.70
2022-09-13T01:04:01.341Z,4.00
2022-09-13T01:06:49.774Z,4.50
2022-09-13T01:09:41.483Z,4.95
2022-09-13T01:12:35.320Z,4.97
2022-09-13T01:15:23.077Z,4.30
2022-09-13T01:18:11.341Z,4.63
2022-09-13T01:21:36.269Z,4.28
2022-09-13T01:24:35.935Z,4.47
2022-09-13T01:27:37.806Z,4.10
2022-09-13T01:30:37.863Z,4.05
2022-09-13T01:33:31.039Z,4.72
2022-09-13T01:36:33.108Z,4.13
2022-09-13T01:39:23.377Z,4.25
2022-09-13T01:42:33.768Z,5.90
2022-09-13T01:45:38.212Z,5.70
2022-09-13T01:48:54.418Z,5.93
2022-09-13T01:51:53.974Z,5.78
2022-09-13T01:55:02.495Z,5.65
2022-09-13T01:57:57.525Z,5.85
2022-09-13T02:00:53.876Z,5.80
2022-09-13T02:04:00.963Z,6.18
2022-09-13T02:07:00.591Z,6.85
2022-09-13T02:09:52.139Z,6.82
2022-09-13T02:12:42.513Z,7.63
2022-09-13T02:15:46.700Z,7.40
2022-09-13T02:18:41.782Z,7.07
2022-09-13T02:21:34.073Z,7.10
2022-09-13T02:24:26.936Z,7.07
2022-09-13T02:27:22.637Z,6.70
2022-09-13T02:30:11.628Z,7.03
2022-09-13T02:33:07.091Z,7.25
2022-09-13T02:36:01.717Z,7.45
2022-09-13T02:38:57.123Z,6.78
2022-09-13T02:41:52.591Z,7.63
2022-09-13T02:44:49.960Z,6.57
2022-09-13T02:48:10.845Z,7.30
2022-09-13T02:51:24.449Z,7.03
2022-09-13T02:54:23.688Z,7.90
2022-09-13T02:57:36.683Z,7.65
2022-09-13T03:00:24.300Z,8.30
2022-09-13T03:03:14.233Z,7.78
2022-09-13T03:06:02.555Z,7.72
2022-09-13T03:08:49.986Z,7.70
2022-09-13T03:12:06.638Z,6.70
2022-09-13T03:15:12.439Z,7.85
2022-09-13T03:18:15.682Z,8.52
2022-09-13T03:21:19.307Z,8.73
2022-09-13T03:24:26.193Z,8.80
2022-09-13T03:27:20.423Z,7.70
2022-09-13T03:30:09.748Z,8.68
2022-09-13T03:33:15.456Z,9.25
2022-09-13T03:36:02.736Z,8.23
2022-09-13T03:39:14.944Z,8.70
2022-09-13T03:42:13.005Z,8.65
2022-09-13T03:45:03.693Z,8.85
2022-09-13T03:47:52.625Z,8.30
2022-09-13T03:50:40.647Z,8.93
2022-09-13T03:53:30.938Z,9.30
2022-09-13T03:56:20.318Z,9.65
2022-09-13T03:59:07.768Z,9.38
2022-09-13T04:01:55.047Z,9.32
2022-09-13T04:04:43.908Z,9.02
2022-09-13T04:07:31.614Z,9.48
2022-09-13T04:10:18.886Z,9.98
2022-09-13T04:13:06.255Z,9.75
2022-09-13T04:15:54.256Z,10.13
2022-09-13T04:18:41.564Z,9.98
2022-09-13T04:21:29.371Z,9.10
2022-09-13T04:24:17.783Z,8.55
2022-09-13T04:27:05.370Z,8.88
2022-09-13T04:29:52.793Z,8.38
2022-09-13T04:32:42.718Z,8.02
2022-09-13T04:35:30.081Z,9.02
2022-09-13T04:38:17.391Z,9.32
2022-09-13T04:41:04.991Z,8.77
2022-09-13T04:43:52.493Z,9.52
2022-09-13T04:46:39.774Z,9.68
2022-09-13T04:49:27.060Z,9.63
2022-09-13T04:52:15.585Z,9.52
2022-09-13T04:55:03.373Z,10.00
2022-09-13T04:57:54.396Z,11.75
2022-09-13T05:00:41.775Z,11.90
2022-09-13T05:03:33.884Z,11.65
2022-09-13T05:06:21.748Z,11.80
2022-09-13T05:09:13.602Z,11.23
2022-09-13T05:14:48.057Z,13.32
2022-09-13T05:17:35.382Z,16.20
2022-09-13T05:20:23.057Z,20.77
2022-09-13T05:23:10.625Z,12.82
2022-09-13T05:26:02.244Z,12.95
2022-09-13T05:28:50.120Z,11.95
2022-09-13T05:31:40.915Z,15.45
2022-09-13T05:34:28.261Z,11.95
2022-09-13T05:37:15.519Z,13.45
2022-09-13T05:40:12.503Z,21.83
2022-09-13T05:43:00.037Z,21.35
2022-09-13T05:45:47.342Z,22.48
2022-09-13T05:48:35.580Z,15.95
2022-09-13T05:51:23.169Z,12.57
2022-09-13T05:54:12.634Z,14.77
2022-09-13T05:57:00.073Z,17.15
2022-09-13T05:59:48.070Z,27.38
2022-09-13T06:02:35.399Z,24.50
2022-09-13T06:05:22.679Z,19.13
2022-09-13T06:08:09.948Z,18.70
2022-09-13T06:11:09.181Z,19.00
2022-09-13T06:13:56.743Z,18.83
2022-09-13T06:16:44.035Z,31.77
2022-09-13T06:19:31.368Z,23.88
2022-09-13T06:22:18.680Z,19.63
2022-09-13T06:25:06.572Z,20.65
2022-09-13T06:27:53.930Z,23.05
2022-09-13T06:30:41.351Z,33.33
2022-09-13T06:33:28.697Z,25.38
2022-09-13T06:36:18.609Z,23.00
2022-09-13T06:39:06.584Z,21.52
2022-09-13T06:41:53.929Z,27.30
2022-09-13T06:44:41.188Z,27.58
2022-09-13T06:47:28.893Z,27.23
2022-09-13T06:50:16.185Z,49.60
2022-09-13T06:53:04.237Z,23.88
2022-09-13T06:56:13.249Z,28.90
2022-09-13T06:59:04.868Z,24.58
2022-09-13T07:01:52.328Z,23.95
2022-09-13T07:04:39.943Z,31.52
2022-09-13T07:07:27.287Z,27.20
2022-09-13T07:10:14.735Z,25.90
2022-09-13T07:13:02.005Z,22.58
2022-09-13T07:15:49.573Z,34.47
2022-09-13T07:18:37.999Z,28.17
2022-09-13T07:21:26.328Z,27.17
2022-09-13T07:24:13.677Z,22.88
2022-09-13T07:27:00.935Z,24.52
2022-09-13T07:29:48.257Z,25.67
2022-09-13T07:32:35.724Z,26.70
2022-09-13T07:35:23.053Z,28.95
2022-09-13T07:38:10.413Z,23.65
2022-09-13T07:40:58.633Z,25.25
2022-09-13T07:43:46.739Z,24.30
2022-09-13T07:46:41.617Z,28.00
2022-09-13T07:49:29.287Z,27.48
2022-09-13T07:52:16.830Z,22.63
2022-09-13T07:55:04.719Z,21.73
2022-09-13T07:57:52.171Z,22.00
2022-09-13T08:00:39.490Z,22.75
2022-09-13T08:03:26.761Z,29.13
2022-09-13T08:06:14.025Z,27.90
2022-09-13T08:09:01.764Z,20.75
2022-09-13T08:11:52.742Z,18.63
2022-09-13T08:14:40.173Z,43.67
2022-09-13T08:17:27.432Z,23.63
2022-09-13T08:20:14.844Z,24.17
2022-09-13T08:23:02.156Z,21.58
2022-09-13T08:25:49.601Z,17.90
2022-09-13T08:28:41.636Z,22.70
2022-09-13T08:31:29.238Z,22.27
2022-09-13T08:34:16.993Z,18.13
2022-09-13T08:37:04.379Z,19.15
2022-09-13T08:39:51.694Z,21.15
2022-09-13T08:43:10.208Z,16.40
2022-09-13T08:46:05.045Z,20.67
2022-09-13T08:48:56.623Z,17.15
2022-09-13T08:51:53.012Z,21.52
2022-09-13T08:54:40.334Z,11.85
2022-09-13T08:57:49.079Z,11.70
2022-09-13T09:00:41.651Z,15.18
2022-09-13T09:03:43.279Z,16.15
2022-09-13T09:06:30.753Z,12.15
2022-09-13T09:09:21.559Z,15.18
2022-09-13T09:12:21.051Z,9.53
2022-09-13T09:15:40.765Z,11.10
2022-09-13T09:18:33.195Z,11.32
2022-09-13T09:21:22.210Z,8.40
2022-09-13T09:24:17.565Z,9.05
2022-09-13T09:27:17.306Z,8.63
2022-09-13T09:30:06.644Z,8.07
2022-09-13T09:33:21.153Z,7.00
2022-09-13T09:36:31.412Z,10.23
2022-09-13T09:39:19.113Z,9.85
2022-09-13T09:42:14.878Z,7.68
2022-09-13T09:45:33.152Z,6.35
2022-09-13T09:48:24.133Z,7.47
2022-09-13T09:51:15.142Z,5.88
2022-09-13T09:54:06.284Z,3.85
2022-09-13T09:56:55.408Z,9.38
2022-09-13T09:59:42.805Z,3.28
2022-09-13T10:02:30.192Z,4.38
2022-09-13T10:05:23.371Z,3.50
2022-09-13T10:08:31.108Z,2.75
2022-09-13T10:11:22.240Z,3.08
2022-09-13T10:14:27.905Z,11.27
2022-09-13T10:17:24.510Z,8.75
2022-09-13T10:20:14.523Z,7.47
2022-09-13T10:23:21.268Z,4.20
2022-09-13T10:26:16.145Z,3.08
2022-09-13T10:29:07.468Z,3.53
2022-09-13T10:31:57.788Z,3.08
2022-09-13T10:34:46.439Z,3.03
2022-09-13T10:37:35.437Z,6.80
2022-09-13T10:40:22.835Z,5.57
2022-09-13T10:43:16.664Z,7.82
2022-09-13T10:46:08.877Z,4.38
2022-09-13T10:48:56.423Z,5.35
2022-09-13T10:51:43.739Z,4.38
2022-09-13T10:54:31.487Z,3.75
2022-09-13T10:57:32.372Z,2.63
2022-09-13T11:00:23.061Z,5.27
2022-09-13T11:03:48.185Z,8.95
2022-09-13T11:07:01.070Z,2.45
2022-09-13T11:10:23.194Z,3.58
2022-09-13T11:13:29.186Z,9.70
2022-09-13T11:16:47.422Z,8.07
2022-09-13T11:19:45.334Z,1.88
2022-09-13T11:23:18.649Z,3.97
2022-09-13T11:26:44.422Z,9.18
2022-09-13T11:29:59.396Z,8.80
2022-09-13T11:33:16.811Z,3.45
2022-09-13T11:36:10.442Z,1.58
2022-09-13T11:39:30.887Z,0.77
2022-09-13T11:42:24.139Z,1.95
2022-09-13T11:45:35.174Z,2.90
2022-09-13T11:48:30.909Z,1.10
2022-09-13T11:51:42.537Z,1.45
2022-09-13T11:57:49.769Z,2.45
2022-09-13T12:00:43.134Z,1.73
2022-09-13T12:03:51.355Z,3.72
2022-09-13T12:06:47.335Z,1.58
2022-09-13T12:09:50.085Z,2.05
2022-09-13T12:12:39.754Z,2.50
2022-09-13T12:15:42.603Z,1.20
2022-09-13T12:18:36.337Z,0.90
2022-09-13T12:21:29.417Z,0.80
2022-09-13T12:24:19.482Z,0.90
2022-09-13T12:27:36.378Z,0.70
2022-09-13T12:30:39.552Z,3.83
2022-09-13T12:33:27.151Z,1.95
2022-09-13T12:36:31.619Z,2.55
2022-09-13T12:39:24.114Z,2.55
2022-09-13T12:42:44.235Z,1.63
2022-09-13T12:45:54.843Z,3.63
2022-09-13T12:49:21.153Z,1.10
2022-09-13T12:52:08.658Z,1.55
2022-09-13T12:55:46.624Z,1.27
2022-09-13T12:58:54.141Z,2.13
2022-09-13T13:01:46.125Z,1.23
2022-09-13T13:04:36.366Z,2.67
2022-09-13T13:07:24.393Z,4.20
2022-09-13T13:10:38.678Z,5.22
2022-09-13T13:13:40.186Z,1.50
2022-09-13T13:16:31.614Z,1.45
2022-09-13T13:19:33.239Z,2.90
2022-09-13T13:22:42.269Z,3.25
2022-09-13T13:25:37.764Z,1.50
2022-09-13T13:28:43.106Z,0.93
2022-09-13T13:31:30.395Z,1.70
2022-09-13T13:34:17.627Z,1.73
2022-09-13T13:37:10.622Z,2.58
2022-09-13T13:40:33.490Z,1.05
2022-09-13T13:43:31.414Z,1.90
2022-09-13T13:46:28.727Z,1.40
2022-09-13T13:49:31.185Z,1.65
2022-09-13T13:52:24.847Z,1.27
2022-09-13T13:55:39.628Z,2.53
2022-09-13T13:58:59.289Z,2.72
2022-09-13T14:01:51.452Z,2.58
2022-09-13T14:04:57.605Z,1.45
2022-09-13T14:08:03.369Z,2.92
2022-09-13T14:11:11.069Z,1.08
2022-09-13T14:14:28.198Z,1.40
2022-09-13T14:17:31.968Z,0.90
2022-09-13T14:20:21.105Z,1.35
2022-09-13T14:23:18.931Z,1.00
2022-09-13T14:26:06.790Z,2.20
2022-09-13T14:28:54.365Z,1.55
2022-09-13T14:31:46.713Z,1.35
2022-09-13T14:34:38.049Z,1.85
2022-09-13T14:37:32.040Z,1.15
2022-09-13T14:40:23.148Z,1.60
2022-09-13T14:46:05.091Z,2.25
2022-09-13T14:49:01.198Z,2.03
2022-09-13T14:52:04.342Z,1.27
2022-09-13T14:54:57.314Z,1.20
2022-09-13T14:57:52.156Z,1.13
2022-09-13T15:00:50.609Z,1.95
2022-09-13T15:03:42.893Z,1.85
2022-09-13T15:06:33.285Z,1.25
2022-09-13T15:09:28.353Z,1.20
2022-09-13T15:12:28.507Z,1.02
2022-09-13T15:15:24.050Z,1.27
2022-09-13T15:18:20.275Z,1.15
2022-09-13T15:21:17.275Z,1.58
2022-09-13T15:24:04.912Z,1.52
2022-09-13T15:27:07.608Z,1.33
2022-09-13T15:29:58.811Z,1.50
2022-09-13T15:32:46.101Z,1.75
2022-09-13T15:35:41.720Z,1.73
2022-09-13T15:38:31.776Z,6.93
2022-09-13T15:41:20.011Z,2.67
2022-09-13T15:44:09.791Z,2.75
2022-09-13T15:47:02.572Z,1.20
2022-09-13T15:49:51.889Z,2.85
2022-09-13T15:52:39.122Z,1.70
2022-09-13T15:55:28.249Z,1.50
2022-09-13T15:58:15.532Z,1.30
2022-09-13T16:01:03.219Z,1.10
2022-09-13T16:03:50.826Z,1.58
2022-09-13T16:06:38.742Z,2.75
2022-09-13T16:09:27.318Z,5.78
2022-09-13T16:12:15.118Z,2.80
2022-09-13T16:15:02.901Z,1.15
2022-09-13T16:17:50.346Z,2.20
2022-09-13T16:20:37.755Z,1.33
2022-09-13T16:23:25.115Z,3.92
2022-09-13T16:26:12.502Z,24.27
2022-09-13T16:28:59.920Z,3.75
2022-09-13T16:31:47.370Z,1.13
2022-09-13T16:34:34.916Z,1.90
2022-09-13T16:37:22.274Z,1.98
2022-09-13T16:40:10.630Z,1.95
2022-09-13T16:42:58.038Z,2.03
2022-09-13T16:45:45.437Z,1.60
2022-09-13T16:48:32.819Z,1.63
2022-09-13T16:51:20.833Z,1.52
2022-09-13T16:54:08.441Z,2.40
2022-09-13T16:56:56.235Z,4.65
2022-09-13T16:59:43.585Z,1.58
2022-09-13T17:02:31.155Z,2.08
2022-09-13T17:05:18.826Z,4.95
2022-09-13T17:08:06.124Z,2.30
2022-09-13T17:10:53.776Z,2.22
2022-09-13T17:13:41.809Z,1.52
2022-09-13T17:16:32.809Z,3.25
2022-09-13T17:19:26.108Z,5.90
2022-09-13T17:22:14.012Z,3.97
2022-09-13T17:25:01.970Z,6.70
2022-09-13T17:27:50.385Z,2.88
2022-09-13T17:30:38.048Z,2.35
2022-09-13T17:33:25.780Z,2.00
2022-09-13T17:36:15.005Z,1.50
2022-09-13T17:39:02.252Z,1.60
2022-09-13T17:41:49.866Z,1.65
2022-09-13T17:44:37.374Z,2.03
2022-09-13T17:47:25.642Z,1.38
2022-09-13T17:50:13.783Z,5.00
2022-09-13T17:53:01.115Z,2.20
2022-09-13T17:55:49.883Z,1.65
2022-09-13T17:58:37.360Z,4.60
2022-09-13T18:01:25.123Z,2.53
2022-09-13T18:04:14.349Z,1.90
2022-09-13T18:07:01.810Z,1.83
2022-09-13T18:09:49.128Z,1.40
2022-09-13T18:12:36.488Z,1.95
2022-09-13T18:15:24.006Z,2.80
2022-09-13T18:18:11.454Z,11.48
2022-09-13T18:20:58.862Z,3.97
2022-09-13T18:23:48.258Z,2.33
2022-09-13T18:26:36.283Z,1.90
2022-09-13T18:29:23.904Z,4.88
2022-09-13T18:32:11.309Z,4.35
2022-09-13T18:34:58.603Z,2.00
2022-09-13T18:37:45.916Z,1.50
2022-09-13T18:40:33.371Z,1.40
2022-09-13T18:43:20.820Z,1.20
2022-09-13T18:46:10.932Z,1.60
2022-09-13T18:48:58.960Z,7.05
2022-09-13T18:51:46.489Z,3.35
2022-09-13T18:54:33.828Z,1.90
2022-09-13T18:57:21.131Z,1.95
2022-09-13T19:00:09.542Z,2.05
2022-09-13T19:03:11.435Z,5.00
2022-09-13T19:06:13.613Z,3.63
2022-09-13T19:09:02.119Z,8.55
2022-09-13T19:11:53.249Z,2.00
2022-09-13T19:14:40.579Z,2.78
2022-09-13T19:17:28.206Z,3.47
2022-09-13T19:20:18.155Z,5.07
2022-09-13T19:23:05.473Z,2.45
2022-09-13T19:25:52.909Z,2.58
2022-09-13T19:28:46.487Z,11.23
2022-09-13T19:31:36.924Z,5.20
2022-09-13T19:34:24.304Z,1.92
2022-09-13T19:37:12.348Z,3.58
2022-09-13T19:39:59.731Z,3.28
2022-09-13T19:42:47.211Z,3.08
2022-09-13T19:45:35.113Z,2.35
2022-09-13T19:48:39.384Z,2.05
2022-09-13T19:51:33.231Z,3.03
2022-09-13T19:54:20.707Z,2.17
2022-09-13T19:57:09.493Z,1.40
2022-09-13T19:59:56.864Z,2.25
2022-09-13T20:02:44.361Z,1.85
2022-09-13T20:05:36.011Z,5.10
2022-09-13T20:08:24.905Z,2.45
2022-09-13T20:11:15.940Z,2.40
2022-09-13T20:14:04.126Z,5.07
2022-09-13T20:16:51.482Z,6.57
2022-09-13T20:19:43.512Z,9.23
2022-09-13T20:22:32.301Z,11.57
2022-09-13T20:25:19.701Z,5.55
2022-09-13T20:28:07.803Z,3.67
2022-09-13T20:30:56.561Z,1.85
2022-09-13T20:33:44.203Z,2.80
2022-09-13T20:36:33.445Z,2.90
2022-09-13T20:39:20.797Z,3.08
2022-09-13T20:42:08.894Z,1.92
2022-09-13T20:44:56.492Z,3.67
2022-09-13T20:47:43.817Z,2.30
2022-09-13T20:50:31.442Z,1.80
2022-09-13T20:53:18.722Z,3.30
2022-09-13T20:56:17.797Z,3.08
2022-09-13T20:59:05.712Z,1.67
2022-09-13T21:01:53.581Z,2.05
2022-09-13T21:04:41.062Z,3.08
2022-09-13T21:07:46.672Z,1.40
2022-09-13T21:10:34.233Z,2.03
2022-09-13T21:13:21.518Z,1.67
2022-09-13T21:16:23.183Z,6.30
2022-09-13T21:19:11.544Z,4.03
2022-09-13T21:21:58.817Z,4.00
2022-09-13T21:24:46.361Z,1.90
2022-09-13T21:27:34.446Z,2.13
2022-09-13T21:30:21.729Z,1.40
2022-09-13T21:33:09.071Z,1.45
2022-09-13T21:35:58.445Z,1.10
2022-09-13T21:38:46.051Z,1.15
2022-09-13T21:41:33.609Z,1.23
2022-09-13T21:44:20.948Z,1.77
2022-09-13T21:47:08.216Z,1.40
2022-09-13T21:49:55.482Z,1.40
2022-09-13T21:52:42.738Z,1.60
2022-09-13T21:55:31.026Z,1.33
2022-09-13T21:58:18.286Z,1.38
2022-09-13T22:01:14.191Z,1.45
2022-09-13T22:04:02.488Z,1.33
2022-09-13T22:06:54.178Z,1.25
2022-09-13T22:09:41.843Z,1.48
2022-09-13T22:12:29.129Z,1.40
2022-09-13T22:15:18.036Z,1.00
2022-09-13T22:18:05.350Z,1.65
2022-09-13T22:20:52.659Z,1.92
2022-09-13T22:23:40.812Z,1.48
2022-09-13T22:26:29.920Z,3.53
2022-09-13T22:29:17.649Z,1.50
2022-09-13T22:32:05.437Z,1.90
2022-09-13T22:34:52.829Z,1.52
2022-09-13T22:37:40.480Z,1.35
2022-09-13T22:40:27.834Z,1.50
2022-09-13T22:43:15.294Z,1.30
2022-09-13T22:46:05.609Z,1.60
2022-09-13T22:48:54.171Z,1.90
2022-09-13T22:51:42.461Z,1.30
2022-09-13T22:54:29.850Z,1.20
2022-09-13T22:57:18.124Z,1.58
2022-09-13T23:00:06.259Z,1.33
2022-09-13T23:02:53.858Z,1.17
2022-09-13T23:05:51.181Z,1.20
2022-09-13T23:08:39.345Z,1.20
2022-09-13T23:11:45.754Z,1.10
2022-09-13T23:14:33.163Z,1.25
2022-09-13T23:17:20.529Z,1.50
2022-09-13T23:20:11.331Z,1.25
2022-09-13T23:22:58.653Z,1.55
2022-09-13T23:25:46.032Z,1.40
2022-09-13T23:28:33.841Z,1.33
2022-09-13T23:31:23.764Z,1.20
2022-09-13T23:34:11.904Z,1.40
2022-09-13T23:36:59.621Z,1.40
2022-09-13T23:39:47.047Z,1.17
2022-09-13T23:42:34.848Z,1.30
2022-09-13T23:45:22.486Z,1.40
2022-09-13T23:48:09.864Z,1.10
2022-09-13T23:51:05.101Z,1.50
2022-09-13T23:53:57.880Z,1.10
2022-09-13T23:56:45.377Z,1.75
2022-09-13T23:59:33.039Z,1.60
